KNTU/NTU METAR and TAF weather

Enter ICAO airport designator
Station Type Date Time Source
KNTU METAR 2022/07/01 01:56 UTC NOAA

KNTU 010156Z 20008KT 10SM BKN300 26/21 A3017 RMK AO2 SLP220 T02560206


Station Type Date Time Source
KNTU Decoded METAR 2022/07/01 01:56 UTC NOAA

OCEANA, NAVAL AIR STATION, VA, United States (KNTU) 36-49N 076-02W 6M
Jun 30, 2022 - 09:56 PM EDT / 2022.07.01 0156 UTC
Wind: from the SSW (200 degrees) at 9 MPH (8 KT):0
Visibility: 10 mile(s):0
Sky conditions: mostly cloudy
Temperature: 78.1 F (25.6 C)
Dew Point: 69.1 F (20.6 C)
Relative Humidity: 73%
Pressure (altimeter): 30.17 in. Hg (1021 hPa)
ob: KNTU 010156Z 20008KT 10SM BKN300 26/21 A3017 RMK AO2 SLP220 T02560206
cycle: 2

Station Type Date Time Source
KNTU TAF 2022/06/30 23:57 UTC NOAA

TAF KNTU 3023/0123 17010KT 9999 FEW300 QNH3011INS
FM011200 18008KT 9999 SCT040 QNH3000INS T20/0110Z T32/0119Z FN20051

Example: see airport list